Station Historical Data
Daily Summary for April 4, 2017 Units:  English    Metric   Both
« Previous Day
Next Day »
Daily Weekly Monthly Yearly Custom
  High: Low: Average:
Temperature: 68.4 °F 49.2 °F 56.8 °F
Dew Point: 46.0 °F 28.0 °F 37.3 °F
Humidity: 66 % 26 % 49 %
Wind Speed: 16.0 mph 0.0 mph 1.9 mph
Wind Gust: 20.0 mph - -
Wind:- - SSE
Pressure: 30.09 in 29.98 in -
Precipitation: 0.00 in    
Historical Graphs
 
 
Tabular Data for April 4, 2017
Time Temperature Dew Point Pressure Wind Wind Speed Wind Gust Humidity Rainfall Rate (Hourly) solar
00:04 50.6 °F 37.7 °F 30.00 in ESE 1.0 mph 5.0 mph 61 % 0.00 in 0.00 W/m2
00:06 50.7 °F 37.8 °F 30.00 in ESE 4.0 mph 6.0 mph 61 % 0.00 in 0.00 W/m2
00:11 50.6 °F 37.7 °F 30.00 in Calm   6.0 mph 61 % 0.00 in 0.00 W/m2
00:16 50.6 °F 37.7 °F 30.00 in East 1.0 mph 7.0 mph 61 % 0.00 in 0.00 W/m2
00:21 50.6 °F 37.7 °F 30.00 in Calm   11.0 mph 61 % 0.00 in 0.00 W/m2
00:26 50.6 °F 37.7 °F 30.00 in Calm   9.0 mph 61 % 0.00 in 0.00 W/m2
00:31 50.6 °F 37.2 °F 30.00 in Calm   13.0 mph 60 % 0.00 in 0.00 W/m2
00:36 50.6 °F 37.2 °F 30.00 in East 2.0 mph 8.0 mph 60 % 0.00 in 0.00 W/m2
00:41 50.7 °F 37.3 °F 30.00 in Calm   8.0 mph 60 % 0.00 in 0.00 W/m2
00:46 50.7 °F 36.9 °F 30.01 in ESE 4.0 mph 13.0 mph 59 % 0.00 in 0.00 W/m2
00:51 50.8 °F 37.4 °F 30.00 in East 4.0 mph 12.0 mph 60 % 0.00 in 0.00 W/m2
00:52 50.8 °F 37.4 °F 30.00 in East 5.0 mph 6.0 mph 60 % 0.00 in 0.00 W/m2
00:57 50.9 °F 37.1 °F 30.01 in ESE 2.0 mph 6.0 mph 59 % 0.00 in 0.00 W/m2
01:02 51.0 °F 37.2 °F 30.01 in Calm   5.0 mph 59 % 0.00 in 0.00 W/m2
01:07 51.0 °F 37.2 °F 30.01 in ESE 2.0 mph 8.0 mph 59 % 0.00 in 0.00 W/m2
01:12 51.1 °F 36.8 °F 30.01 in ESE 4.0 mph 9.0 mph 58 % 0.00 in 0.00 W/m2
01:17 51.2 °F 37.0 °F 30.01 in East 8.0 mph 8.0 mph 58 % 0.00 in 0.00 W/m2
01:22 51.2 °F 36.5 °F 30.01 in East 6.0 mph 9.0 mph 57 % 0.00 in 0.00 W/m2
01:27 51.2 °F 36.5 °F 30.01 in East 7.0 mph 7.0 mph 57 % 0.00 in 0.00 W/m2
01:32 51.3 °F 37.0 °F 30.01 in ESE 7.0 mph 9.0 mph 58 % 0.00 in 0.00 W/m2
01:37 51.3 °F 36.6 °F 30.01 in ESE 7.0 mph 7.0 mph 57 % 0.00 in 0.00 W/m2
01:42 51.3 °F 37.5 °F 30.01 in Calm   14.0 mph 59 % 0.00 in 0.00 W/m2
01:47 51.3 °F 37.0 °F 30.01 in ESE 4.0 mph 9.0 mph 58 % 0.00 in 0.00 W/m2
01:52 51.2 °F 36.5 °F 30.01 in Calm   9.0 mph 57 % 0.00 in 0.00 W/m2
01:57 51.1 °F 37.7 °F 30.01 in Calm   5.0 mph 60 % 0.00 in 0.00 W/m2
02:02 50.9 °F 38.8 °F 30.01 in East 1.0 mph 6.0 mph 63 % 0.00 in 0.00 W/m2
02:08 50.7 °F 38.6 °F 30.01 in ESE 2.0 mph 6.0 mph 63 % 0.00 in 0.00 W/m2
02:13 50.5 °F 37.2 °F 30.00 in East 1.0 mph 8.0 mph 60 % 0.00 in 0.00 W/m2
02:18 50.4 °F 36.6 °F 30.00 in ESE 5.0 mph 8.0 mph 59 % 0.00 in 0.00 W/m2
02:23 50.3 °F 36.1 °F 30.00 in East 1.0 mph 7.0 mph 58 % 0.00 in 0.00 W/m2
02:28 50.2 °F 36.0 °F 30.00 in East 4.0 mph 15.0 mph 58 % 0.00 in 0.00 W/m2
02:33 50.2 °F 36.0 °F 30.00 in ESE 1.0 mph 6.0 mph 58 % 0.00 in 0.00 W/m2
02:38 50.2 °F 35.6 °F 30.00 in ESE 6.0 mph 9.0 mph 57 % 0.00 in 0.00 W/m2
02:43 50.2 °F 34.7 °F 30.00 in ESE 5.0 mph 16.0 mph 55 % 0.00 in 0.00 W/m2
02:48 50.2 °F 35.1 °F 30.00 in Calm   12.0 mph 56 % 0.00 in 0.00 W/m2
02:53 50.1 °F 35.0 °F 30.00 in Calm   18.0 mph 56 % 0.00 in 0.00 W/m2
02:58 50.1 °F 34.6 °F 29.99 in ESE 16.0 mph 16.0 mph 55 % 0.00 in 0.00 W/m2
03:03 50.2 °F 34.2 °F 29.99 in East 11.0 mph 20.0 mph 54 % 0.00 in 0.00 W/m2
03:08 50.2 °F 34.2 °F 29.99 in East 4.0 mph 5.0 mph 54 % 0.00 in 0.00 W/m2
03:13 50.2 °F 34.7 °F 29.99 in ESE 2.0 mph 15.0 mph 55 % 0.00 in 0.00 W/m2
03:18 50.2 °F 34.7 °F 29.99 in ESE 6.0 mph 15.0 mph 55 % 0.00 in 0.00 W/m2
03:23 50.1 °F 34.1 °F 29.99 in Calm   16.0 mph 54 % 0.00 in 0.00 W/m2
03:28 50.1 °F 33.7 °F 29.99 in Calm   16.0 mph 53 % 0.00 in 0.00 W/m2
03:33 50.2 °F 33.7 °F 29.99 in ESE 2.0 mph 13.0 mph 53 % 0.00 in 0.00 W/m2
03:38 50.2 °F 33.3 °F 29.98 in ESE 2.0 mph 14.0 mph 52 % 0.00 in 0.00 W/m2
03:43 50.3 °F 33.4 °F 29.98 in East 5.0 mph 18.0 mph 52 % 0.00 in 0.00 W/m2
03:48 50.4 °F 33.0 °F 29.98 in East 2.0 mph 14.0 mph 51 % 0.00 in 0.00 W/m2
03:53 50.4 °F 32.0 °F 29.99 in ESE 2.0 mph 13.0 mph 49 % 0.00 in 0.00 W/m2
03:58 50.5 °F 31.6 °F 29.99 in East 3.0 mph 12.0 mph 48 % 0.00 in 0.00 W/m2
04:03 50.6 °F 31.6 °F 29.99 in Calm   9.0 mph 48 % 0.00 in 0.00 W/m2
04:08 50.7 °F 31.7 °F 29.99 in East 2.0 mph 16.0 mph 48 % 0.00 in 0.00 W/m2
04:13 50.7 °F 32.2 °F 29.99 in East 2.0 mph 6.0 mph 49 % 0.00 in 0.00 W/m2
04:18 50.8 °F 34.8 °F 30.00 in ENE 1.0 mph 3.0 mph 54 % 0.00 in 0.00 W/m2
04:23 50.7 °F 34.7 °F 30.00 in Calm   3.0 mph 54 % 0.00 in 0.00 W/m2
04:28 50.4 °F 33.0 °F 30.00 in Calm     51 % 0.00 in 0.00 W/m2
04:33 50.3 °F 33.4 °F 30.00 in Calm     52 % 0.00 in 0.00 W/m2
04:38 50.1 °F 35.0 °F 30.00 in Calm     56 % 0.00 in 0.00 W/m2
04:43 49.9 °F 34.4 °F 30.00 in ENE 1.0 mph 3.0 mph 55 % 0.00 in 0.00 W/m2
04:48 49.7 °F 33.3 °F 29.99 in ENE 1.0 mph 4.0 mph 53 % 0.00 in 0.00 W/m2
04:53 49.5 °F 33.6 °F 29.99 in ENE 6.0 mph 7.0 mph 54 % 0.00 in 0.00 W/m2
04:59 49.4 °F 33.0 °F 29.99 in Calm   6.0 mph 53 % 0.00 in 0.00 W/m2
05:04 49.4 °F 32.5 °F 29.99 in Calm   1.0 mph 52 % 0.00 in 0.00 W/m2
05:09 49.4 °F 33.0 °F 30.00 in Calm   7.0 mph 53 % 0.00 in 0.00 W/m2
05:14 49.3 °F 32.0 °F 30.00 in ESE 4.0 mph 5.0 mph 51 % 0.00 in 0.00 W/m2
05:19 49.3 °F 31.0 °F 30.00 in Calm   5.0 mph 49 % 0.00 in 0.00 W/m2
05:24 49.3 °F 32.9 °F 30.00 in Calm   4.0 mph 53 % 0.00 in 0.00 W/m2
05:25 49.3 °F 32.0 °F 30.00 in Calm   4.0 mph 51 % 0.00 in 0.00 W/m2
05:30 49.3 °F 31.5 °F 30.00 in Calm   7.0 mph 50 % 0.00 in 0.00 W/m2
05:35 49.2 °F 30.9 °F 30.01 in East 2.0 mph 8.0 mph 49 % 0.00 in 0.00 W/m2
05:40 49.3 °F 29.9 °F 30.01 in East 2.0 mph 4.0 mph 47 % 0.00 in 0.00 W/m2
05:45 49.4 °F 31.1 °F 30.00 in Calm   3.0 mph 49 % 0.00 in 0.00 W/m2
05:50 49.5 °F 31.6 °F 30.00 in Calm   4.0 mph 50 % 0.00 in 0.00 W/m2
05:55 49.5 °F 31.6 °F 30.00 in Calm   6.0 mph 50 % 0.00 in 0.00 W/m2
06:00 49.6 °F 31.7 °F 30.00 in Calm   7.0 mph 50 % 0.00 in 0.00 W/m2
06:05 49.6 °F 31.2 °F 30.00 in Calm   6.0 mph 49 % 0.00 in 0.00 W/m2
06:10 49.6 °F 30.7 °F 30.00 in Calm   7.0 mph 48 % 0.00 in 0.00 W/m2
06:15 49.6 °F 29.7 °F 30.00 in Calm   5.0 mph 46 % 0.00 in 0.00 W/m2
06:20 49.6 °F 29.1 °F 30.00 in Calm   5.0 mph 45 % 0.00 in 0.00 W/m2
06:25 49.6 °F 30.7 °F 30.00 in Calm   6.0 mph 48 % 0.00 in 0.00 W/m2
06:30 49.6 °F 29.7 °F 30.00 in Calm   9.0 mph 46 % 0.00 in 0.00 W/m2
06:35 49.6 °F 29.1 °F 30.00 in Calm   8.0 mph 45 % 0.00 in 0.00 W/m2
06:40 49.5 °F 29.6 °F 30.00 in East 2.0 mph 18.0 mph 46 % 0.00 in 0.00 W/m2
06:45 49.5 °F 29.1 °F 30.00 in ESE 6.0 mph 13.0 mph 45 % 0.00 in 5.00 W/m2
06:50 49.4 °F 29.5 °F 30.00 in ESE 5.0 mph 12.0 mph 46 % 0.00 in 9.00 W/m2
06:52 49.4 °F 29.5 °F 30.00 in ESE 13.0 mph 19.0 mph 46 % 0.00 in 11.00 W/m2
06:57 49.4 °F 29.0 °F 30.00 in ESE 9.0 mph 9.0 mph 45 % 0.00 in 14.00 W/m2
07:02 49.4 °F 29.0 °F 30.00 in Calm   11.0 mph 45 % 0.00 in 19.00 W/m2
07:07 49.4 °F 29.0 °F 30.01 in Calm   15.0 mph 45 % 0.00 in 21.00 W/m2
07:12 49.5 °F 28.5 °F 30.01 in ESE 2.0 mph 15.0 mph 44 % 0.00 in 30.00 W/m2
07:17 49.6 °F 28.0 °F 30.02 in Calm   12.0 mph 43 % 0.00 in 44.00 W/m2
07:23 49.7 °F 28.7 °F 30.02 in Calm   8.0 mph 44 % 0.00 in 42.00 W/m2
07:28 49.8 °F 28.8 °F 30.02 in ESE 1.0 mph 12.0 mph 44 % 0.00 in 35.00 W/m2
07:33 50.0 °F 28.4 °F 30.02 in Calm   5.0 mph 43 % 0.00 in 37.00 W/m2
07:38 50.1 °F 28.5 °F 30.03 in Calm   6.0 mph 43 % 0.00 in 40.00 W/m2
07:43 50.3 °F 28.7 °F 30.03 in Calm   6.0 mph 43 % 0.00 in 44.00 W/m2
07:48 50.4 °F 30.4 °F 30.03 in Calm   6.0 mph 46 % 0.00 in 47.00 W/m2
07:53 50.5 °F 29.4 °F 30.03 in ESE 2.0 mph 8.0 mph 44 % 0.00 in 63.00 W/m2
07:58 50.6 °F 30.1 °F 30.03 in East 6.0 mph 6.0 mph 45 % 0.00 in 84.00 W/m2
08:03 50.7 °F 29.6 °F 30.03 in East 6.0 mph 7.0 mph 44 % 0.00 in 74.00 W/m2
08:08 50.8 °F 31.3 °F 30.03 in East 4.0 mph 7.0 mph 47 % 0.00 in 72.00 W/m2
08:13 51.0 °F 30.4 °F 30.03 in Calm   6.0 mph 45 % 0.00 in 90.00 W/m2
08:18 51.1 °F 31.1 °F 30.03 in Calm   6.0 mph 46 % 0.00 in 100.00 W/m2
08:23 51.2 °F 32.2 °F 30.03 in Calm   9.0 mph 48 % 0.00 in 153.00 W/m2
08:28 51.3 °F 31.8 °F 30.03 in ESE 2.0 mph 9.0 mph 47 % 0.00 in 315.00 W/m2
08:33 51.4 °F 31.3 °F 30.03 in Calm   5.0 mph 46 % 0.00 in 137.00 W/m2
08:38 51.6 °F 32.0 °F 30.03 in Calm   8.0 mph 47 % 0.00 in 142.00 W/m2
08:43 51.7 °F 31.6 °F 30.03 in East 7.0 mph 8.0 mph 46 % 0.00 in 274.00 W/m2
08:48 51.8 °F 32.2 °F 30.03 in East 1.0 mph 5.0 mph 47 % 0.00 in 264.00 W/m2
08:53 51.9 °F 31.8 °F 30.03 in ESE 6.0 mph 7.0 mph 46 % 0.00 in 239.00 W/m2
08:58 52.1 °F 33.5 °F 30.03 in ESE 1.0 mph 8.0 mph 49 % 0.00 in 195.00 W/m2
09:03 52.3 °F 33.2 °F 30.03 in ESE 4.0 mph 4.0 mph 48 % 0.00 in 202.00 W/m2
09:08 52.5 °F 32.9 °F 30.03 in ESE 4.0 mph 5.0 mph 47 % 0.00 in 149.00 W/m2
09:13 52.6 °F 34.5 °F 30.03 in Calm   4.0 mph 50 % 0.00 in 503.00 W/m2
09:18 52.8 °F 34.7 °F 30.03 in ESE 2.0 mph 4.0 mph 50 % 0.00 in 473.00 W/m2
09:23 53.0 °F 35.9 °F 30.03 in Calm   4.0 mph 52 % 0.00 in 512.00 W/m2
09:28 53.2 °F 36.0 °F 30.04 in Calm   5.0 mph 52 % 0.00 in 459.00 W/m2
09:33 53.5 °F 34.8 °F 30.03 in Calm     49 % 0.00 in 352.00 W/m2
09:38 53.7 °F 33.4 °F 30.04 in ESE 1.0 mph 2.0 mph 46 % 0.00 in 499.00 W/m2
09:43 54.0 °F 32.6 °F 30.04 in Calm   1.0 mph 44 % 0.00 in 443.00 W/m2
09:48 54.5 °F 31.9 °F 30.04 in Calm     42 % 0.00 in 504.00 W/m2
09:53 54.8 °F 33.3 °F 30.05 in Calm   1.0 mph 44 % 0.00 in 452.00 W/m2
09:58 55.3 °F 33.2 °F 30.05 in Calm   1.0 mph 43 % 0.00 in 673.00 W/m2
10:03 55.8 °F 35.9 °F 30.05 in SW 1.0 mph 7.0 mph 47 % 0.00 in 795.00 W/m2
10:08 56.2 °F 34.0 °F 30.05 in Calm   7.0 mph 43 % 0.00 in 501.00 W/m2
10:13 56.6 °F 33.8 °F 30.05 in Calm   7.0 mph 42 % 0.00 in 640.00 W/m2
10:18 56.9 °F 32.8 °F 30.06 in South 2.0 mph 4.0 mph 40 % 0.00 in 519.00 W/m2
10:23 57.3 °F 33.8 °F 30.06 in SW 1.0 mph 2.0 mph 41 % 0.00 in 446.00 W/m2
10:29 57.7 °F 34.2 °F 30.06 in Calm     41 % 0.00 in 482.00 W/m2
10:34 58.2 °F 36.4 °F 30.06 in Calm   1.0 mph 44 % 0.00 in 431.00 W/m2
10:39 58.4 °F 37.2 °F 30.07 in SW 2.0 mph 3.0 mph 45 % 0.00 in 445.00 W/m2
10:44 58.6 °F 36.2 °F 30.07 in Calm   2.0 mph 43 % 0.00 in 446.00 W/m2
10:49 58.8 °F 38.1 °F 30.07 in Calm   1.0 mph 46 % 0.00 in 450.00 W/m2
10:54 58.9 °F 37.6 °F 30.07 in SSE 1.0 mph 4.0 mph 45 % 0.00 in 415.00 W/m2
10:59 59.1 °F 36.7 °F 30.07 in South 4.0 mph 4.0 mph 43 % 0.00 in 601.00 W/m2
11:04 59.2 °F 37.9 °F 30.07 in South 1.0 mph 2.0 mph 45 % 0.00 in 439.00 W/m2
11:09 59.3 °F 38.0 °F 30.07 in Calm   1.0 mph 45 % 0.00 in 504.00 W/m2
11:14 59.4 °F 38.1 °F 30.07 in South 2.0 mph 6.0 mph 45 % 0.00 in 812.00 W/m2
11:19 59.6 °F 38.8 °F 30.07 in Calm   3.0 mph 46 % 0.00 in 814.00 W/m2
11:24 59.8 °F 37.9 °F 30.06 in Calm   1.0 mph 44 % 0.00 in 816.00 W/m2
11:29 60.0 °F 39.2 °F 30.07 in SW 2.0 mph 12.0 mph 46 % 0.00 in 840.00 W/m2
11:34 60.4 °F 39.5 °F 30.06 in Calm   9.0 mph 46 % 0.00 in 823.00 W/m2
11:39 60.6 °F 38.6 °F 30.06 in Calm   2.0 mph 44 % 0.00 in 838.00 W/m2
11:44 60.9 °F 38.9 °F 30.06 in SSE 7.0 mph 8.0 mph 44 % 0.00 in 831.00 W/m2
11:49 61.3 °F 37.4 °F 30.06 in Calm   2.0 mph 41 % 0.00 in 816.00 W/m2
11:54 61.6 °F 36.4 °F 30.06 in SSE 9.0 mph 10.0 mph 39 % 0.00 in 844.00 W/m2
11:59 62.0 °F 34.8 °F 30.06 in Calm   8.0 mph 36 % 0.00 in 868.00 W/m2
12:04 62.4 °F 35.8 °F 30.06 in Calm   6.0 mph 37 % 0.00 in 911.00 W/m2
12:09 62.8 °F 36.2 °F 30.06 in Calm   10.0 mph 37 % 0.00 in 798.00 W/m2
12:14 63.2 °F 37.9 °F 30.06 in Calm   4.0 mph 39 % 0.00 in 865.00 W/m2
12:19 63.7 °F 38.3 °F 30.06 in SSE 10.0 mph 12.0 mph 39 % 0.00 in 881.00 W/m2
12:24 64.3 °F 39.5 °F 30.06 in South 6.0 mph 8.0 mph 40 % 0.00 in 886.00 W/m2
12:29 64.8 °F 39.3 °F 30.06 in SW 8.0 mph 8.0 mph 39 % 0.00 in 828.00 W/m2
12:34 65.2 °F 39.0 °F 30.06 in WNW 4.0 mph 10.0 mph 38 % 0.00 in 870.00 W/m2
12:39 65.2 °F 39.0 °F 30.06 in WSW 2.0 mph 7.0 mph 38 % 0.00 in 861.00 W/m2
12:44 65.1 °F 39.5 °F 30.06 in Calm   11.0 mph 39 % 0.00 in 877.00 W/m2
12:49 65.1 °F 37.5 °F 30.06 in West 5.0 mph 9.0 mph 36 % 0.00 in 884.00 W/m2
12:54 65.0 °F 39.5 °F 30.06 in SSW 5.0 mph 10.0 mph 39 % 0.00 in 884.00 W/m2
12:59 65.2 °F 36.2 °F 30.06 in SSW 2.0 mph 10.0 mph 34 % 0.00 in 888.00 W/m2
13:04 65.6 °F 38.7 °F 30.06 in Calm   7.0 mph 37 % 0.00 in 888.00 W/m2
13:09 65.6 °F 36.5 °F 30.06 in Calm   8.0 mph 34 % 0.00 in 884.00 W/m2
13:14 65.3 °F 37.0 °F 30.06 in WSW 2.0 mph 8.0 mph 35 % 0.00 in 888.00 W/m2
13:16 65.2 °F 36.9 °F 30.06 in West 4.0 mph 8.0 mph 35 % 0.00 in 884.00 W/m2
13:21 64.8 °F 35.8 °F 30.05 in Calm   4.0 mph 34 % 0.00 in 884.00 W/m2
13:26 65.0 °F 39.5 °F 30.05 in South 7.0 mph 9.0 mph 39 % 0.00 in 858.00 W/m2
13:31 65.5 °F 34.9 °F 30.05 in Calm   7.0 mph 32 % 0.00 in 884.00 W/m2
13:36 66.1 °F 35.4 °F 30.05 in SW 5.0 mph 10.0 mph 32 % 0.00 in 882.00 W/m2
13:41 66.6 °F 30.7 °F 30.05 in WSW 2.0 mph 10.0 mph 26 % 0.00 in 879.00 W/m2
13:46 66.7 °F 31.7 °F 30.05 in SW 5.0 mph 9.0 mph 27 % 0.00 in 881.00 W/m2
13:51 66.7 °F 34.3 °F 30.05 in WSW 6.0 mph 10.0 mph 30 % 0.00 in 868.00 W/m2
13:56 66.6 °F 34.2 °F 30.05 in WNW 5.0 mph 11.0 mph 30 % 0.00 in 860.00 W/m2
14:01 66.7 °F 34.3 °F 30.05 in SSW 8.0 mph 11.0 mph 30 % 0.00 in 856.00 W/m2
14:06 67.0 °F 37.7 °F 30.05 in South 6.0 mph 8.0 mph 34 % 0.00 in 851.00 W/m2
14:11 67.4 °F 38.1 °F 30.05 in South 8.0 mph 9.0 mph 34 % 0.00 in 844.00 W/m2
14:16 67.9 °F 36.2 °F 30.05 in Calm   10.0 mph 31 % 0.00 in 838.00 W/m2
14:21 68.3 °F 38.9 °F 30.05 in SW 9.0 mph 11.0 mph 34 % 0.00 in 833.00 W/m2
14:26 68.3 °F 38.1 °F 30.04 in SW 5.0 mph 11.0 mph 33 % 0.00 in 835.00 W/m2
14:31 68.4 °F 36.6 °F 30.05 in West 7.0 mph 9.0 mph 31 % 0.00 in 826.00 W/m2
14:36 68.1 °F 36.3 °F 30.05 in West 2.0 mph 12.0 mph 31 % 0.00 in 830.00 W/m2
14:41 67.7 °F 36.8 °F 30.05 in Calm   11.0 mph 32 % 0.00 in 816.00 W/m2
14:46 67.7 °F 36.0 °F 30.04 in Calm   8.0 mph 31 % 0.00 in 786.00 W/m2
14:51 67.7 °F 36.0 °F 30.05 in Calm   3.0 mph 31 % 0.00 in 745.00 W/m2
14:56 67.5 °F 38.2 °F 30.04 in WSW 4.0 mph 8.0 mph 34 % 0.00 in 666.00 W/m2
15:01 67.5 °F 35.8 °F 30.04 in WSW 7.0 mph 10.0 mph 31 % 0.00 in 642.00 W/m2
15:06 67.3 °F 36.5 °F 30.04 in WSW 5.0 mph 8.0 mph 32 % 0.00 in 626.00 W/m2
15:11 67.1 °F 37.8 °F 30.04 in WSW 7.0 mph 8.0 mph 34 % 0.00 in 564.00 W/m2
15:16 67.1 °F 38.6 °F 30.04 in SW 7.0 mph 11.0 mph 35 % 0.00 in 721.00 W/m2
15:21 67.1 °F 37.8 °F 30.04 in Calm   9.0 mph 34 % 0.00 in 812.00 W/m2
15:26 67.1 °F 37.8 °F 30.04 in West 4.0 mph 8.0 mph 34 % 0.00 in 724.00 W/m2
15:31 67.1 °F 37.1 °F 30.04 in WSW 1.0 mph 10.0 mph 33 % 0.00 in 661.00 W/m2
15:36 67.0 °F 37.7 °F 30.04 in WSW 6.0 mph 8.0 mph 34 % 0.00 in 504.00 W/m2
15:41 66.7 °F 36.7 °F 30.04 in WSW 6.0 mph 8.0 mph 33 % 0.00 in 703.00 W/m2
15:46 66.5 °F 38.8 °F 30.04 in WSW 8.0 mph 10.0 mph 36 % 0.00 in 582.00 W/m2
15:51 66.4 °F 38.7 °F 30.04 in WSW 7.0 mph 9.0 mph 36 % 0.00 in 371.00 W/m2
15:56 66.3 °F 39.3 °F 30.04 in Calm   9.0 mph 37 % 0.00 in 513.00 W/m2
16:01 66.2 °F 39.2 °F 30.04 in SW 8.0 mph 10.0 mph 37 % 0.00 in 626.00 W/m2
16:06 66.1 °F 41.1 °F 30.04 in South 2.0 mph 2.0 mph 40 % 0.00 in 598.00 W/m2
16:11 66.1 °F 39.8 °F 30.04 in South 7.0 mph 10.0 mph 38 % 0.00 in 520.00 W/m2
16:16 66.0 °F 40.4 °F 30.04 in SSW 7.0 mph 8.0 mph 39 % 0.00 in 471.00 W/m2
16:21 66.0 °F 40.4 °F 30.04 in SSW 6.0 mph 10.0 mph 39 % 0.00 in 455.00 W/m2
16:26 65.9 °F 40.9 °F 30.04 in SSW 1.0 mph 8.0 mph 40 % 0.00 in 540.00 W/m2
16:31 65.9 °F 40.3 °F 30.03 in Calm   6.0 mph 39 % 0.00 in 380.00 W/m2
16:36 65.8 °F 41.5 °F 30.03 in SW 1.0 mph 2.0 mph 41 % 0.00 in 302.00 W/m2
16:41 65.6 °F 41.3 °F 30.03 in Calm   2.0 mph 41 % 0.00 in 367.00 W/m2
16:46 65.3 °F 39.7 °F 30.03 in Calm     39 % 0.00 in 406.00 W/m2
16:51 65.2 °F 40.9 °F 30.04 in Calm     41 % 0.00 in 396.00 W/m2
16:56 65.2 °F 40.3 °F 30.04 in Calm     40 % 0.00 in 418.00 W/m2
17:01 65.1 °F 42.7 °F 30.04 in Calm     44 % 0.00 in 408.00 W/m2
17:06 65.1 °F 40.8 °F 30.04 in Calm   1.0 mph 41 % 0.00 in 468.00 W/m2
17:11 65.1 °F 38.2 °F 30.04 in Calm   6.0 mph 37 % 0.00 in 394.00 W/m2
17:16 65.2 °F 39.6 °F 30.04 in Calm   8.0 mph 39 % 0.00 in 341.00 W/m2
17:21 65.2 °F 40.3 °F 30.05 in West 1.0 mph 11.0 mph 40 % 0.00 in 274.00 W/m2
17:26 65.1 °F 40.8 °F 30.04 in West 1.0 mph 6.0 mph 41 % 0.00 in 265.00 W/m2
17:31 65.0 °F 42.0 °F 30.04 in Calm     43 % 0.00 in 244.00 W/m2
17:36 64.9 °F 42.5 °F 30.04 in SW 6.0 mph 8.0 mph 44 % 0.00 in 267.00 W/m2
17:41 64.8 °F 42.4 °F 30.04 in Calm   6.0 mph 44 % 0.00 in 211.00 W/m2
17:46 64.7 °F 42.3 °F 30.05 in Calm     44 % 0.00 in 137.00 W/m2
17:51 64.6 °F 42.2 °F 30.05 in Calm     44 % 0.00 in 111.00 W/m2
17:56 64.5 °F 43.3 °F 30.05 in Calm     46 % 0.00 in 98.00 W/m2
18:01 64.3 °F 43.7 °F 30.05 in Calm     47 % 0.00 in 90.00 W/m2
18:06 63.9 °F 42.7 °F 30.05 in Calm     46 % 0.00 in 84.00 W/m2
18:11 63.6 °F 43.6 °F 30.05 in Calm     48 % 0.00 in 77.00 W/m2
18:17 63.5 °F 44.5 °F 30.05 in Calm     50 % 0.00 in 72.00 W/m2
18:22 63.2 °F 43.7 °F 30.05 in Calm     49 % 0.00 in 65.00 W/m2
18:27 63.1 °F 44.7 °F 30.05 in Calm     51 % 0.00 in 56.00 W/m2
18:32 62.7 °F 45.8 °F 30.05 in Calm     54 % 0.00 in 49.00 W/m2
18:37 62.4 °F 46.0 °F 30.05 in Calm     55 % 0.00 in 42.00 W/m2
18:42 62.2 °F 44.4 °F 30.05 in Calm     52 % 0.00 in 37.00 W/m2
18:47 62.0 °F 44.2 °F 30.05 in Calm     52 % 0.00 in 32.00 W/m2
18:52 61.8 °F 45.0 °F 30.05 in Calm     54 % 0.00 in 28.00 W/m2
18:57 61.6 °F 44.8 °F 30.05 in Calm     54 % 0.00 in 26.00 W/m2
19:02 61.3 °F 45.0 °F 30.06 in Calm     55 % 0.00 in 21.00 W/m2
19:07 60.8 °F 46.0 °F 30.06 in Calm   1.0 mph 58 % 0.00 in 14.00 W/m2
19:12 60.4 °F 44.7 °F 30.06 in Calm   1.0 mph 56 % 0.00 in 11.00 W/m2
19:17 60.2 °F 45.4 °F 30.07 in Calm     58 % 0.00 in 7.00 W/m2
19:22 59.8 °F 45.0 °F 30.07 in Calm     58 % 0.00 in 0.00 W/m2
19:27 59.4 °F 44.6 °F 30.07 in Calm     58 % 0.00 in 0.00 W/m2
19:32 58.9 °F 44.2 °F 30.07 in Calm     58 % 0.00 in 0.00 W/m2
19:37 58.5 °F 45.1 °F 30.07 in Calm     61 % 0.00 in 0.00 W/m2
19:42 58.3 °F 44.0 °F 30.07 in Calm     59 % 0.00 in 0.00 W/m2
19:47 58.1 °F 42.0 °F 30.07 in Calm     55 % 0.00 in 0.00 W/m2
19:52 57.8 °F 43.1 °F 30.07 in Calm     58 % 0.00 in 0.00 W/m2
19:57 57.6 °F 42.5 °F 30.07 in Calm     57 % 0.00 in 0.00 W/m2
20:02 57.3 °F 41.8 °F 30.07 in Calm     56 % 0.00 in 0.00 W/m2
20:07 57.1 °F 42.9 °F 30.07 in Calm     59 % 0.00 in 0.00 W/m2
20:12 57.0 °F 42.4 °F 30.07 in Calm     58 % 0.00 in 0.00 W/m2
20:17 56.9 °F 42.7 °F 30.07 in Calm     59 % 0.00 in 0.00 W/m2
20:22 56.7 °F 42.1 °F 30.07 in Calm     58 % 0.00 in 0.00 W/m2
20:27 56.5 °F 41.0 °F 30.07 in Calm     56 % 0.00 in 0.00 W/m2
20:32 56.3 °F 41.3 °F 30.07 in Calm   4.0 mph 57 % 0.00 in 0.00 W/m2
20:37 56.2 °F 43.0 °F 30.06 in Calm   2.0 mph 61 % 0.00 in 0.00 W/m2
20:42 56.1 °F 42.4 °F 30.06 in Calm   5.0 mph 60 % 0.00 in 0.00 W/m2
20:47 56.0 °F 41.9 °F 30.07 in ESE 1.0 mph 4.0 mph 59 % 0.00 in 0.00 W/m2
20:52 56.1 °F 42.4 °F 30.07 in Calm   1.0 mph 60 % 0.00 in 0.00 W/m2
20:57 56.0 °F 42.3 °F 30.08 in Calm     60 % 0.00 in 0.00 W/m2
21:02 56.1 °F 42.0 °F 30.08 in Calm     59 % 0.00 in 0.00 W/m2
21:07 56.1 °F 42.0 °F 30.08 in Calm     59 % 0.00 in 0.00 W/m2
21:12 56.1 °F 42.0 °F 30.08 in Calm     59 % 0.00 in 0.00 W/m2
21:17 56.1 °F 42.0 °F 30.08 in ESE 1.0 mph 2.0 mph 59 % 0.00 in 0.00 W/m2
21:22 56.1 °F 42.8 °F 30.08 in Calm   2.0 mph 61 % 0.00 in 0.00 W/m2
21:27 56.1 °F 42.8 °F 30.08 in Calm     61 % 0.00 in 0.00 W/m2
21:32 56.1 °F 42.8 °F 30.09 in Calm     61 % 0.00 in 0.00 W/m2
21:37 56.0 °F 42.8 °F 30.09 in Calm     61 % 0.00 in 0.00 W/m2
21:42 56.0 °F 43.2 °F 30.09 in Calm     62 % 0.00 in 0.00 W/m2
21:47 55.9 °F 43.1 °F 30.08 in Calm     62 % 0.00 in 0.00 W/m2
21:52 55.7 °F 43.3 °F 30.08 in Calm     63 % 0.00 in 0.00 W/m2
21:57 55.5 °F 43.1 °F 30.08 in Calm     63 % 0.00 in 0.00 W/m2
22:02 55.3 °F 42.5 °F 30.08 in Calm     62 % 0.00 in 0.00 W/m2
22:08 55.1 °F 42.3 °F 30.08 in Calm     62 % 0.00 in 0.00 W/m2
22:13 54.9 °F 42.1 °F 30.08 in Calm     62 % 0.00 in 0.00 W/m2
22:18 54.8 °F 42.0 °F 30.08 in Calm     62 % 0.00 in 0.00 W/m2
22:23 54.8 °F 42.5 °F 30.07 in Calm     63 % 0.00 in 0.00 W/m2
22:28 54.7 °F 42.8 °F 30.07 in ESE 2.0 mph 5.0 mph 64 % 0.00 in 0.00 W/m2
22:33 54.7 °F 43.2 °F 30.07 in ESE 1.0 mph 7.0 mph 65 % 0.00 in 0.00 W/m2
22:38 54.7 °F 43.2 °F 30.07 in Calm   4.0 mph 65 % 0.00 in 0.00 W/m2
22:43 54.6 °F 42.7 °F 30.07 in East 1.0 mph 12.0 mph 64 % 0.00 in 0.00 W/m2
22:48 54.6 °F 43.1 °F 30.07 in Calm   4.0 mph 65 % 0.00 in 0.00 W/m2
22:53 54.6 °F 43.1 °F 30.07 in East 2.0 mph 9.0 mph 65 % 0.00 in 0.00 W/m2
22:58 54.7 °F 43.2 °F 30.07 in ESE 2.0 mph 7.0 mph 65 % 0.00 in 0.00 W/m2
23:08 54.8 °F 43.3 °F 30.07 in ESE 2.0 mph 7.0 mph 65 % 0.00 in 0.00 W/m2
23:13 54.9 °F 43.4 °F 30.07 in ESE 1.0 mph 7.0 mph 65 % 0.00 in 0.00 W/m2
23:18 55.0 °F 43.1 °F 30.07 in ESE 5.0 mph 5.0 mph 64 % 0.00 in 0.00 W/m2
23:23 55.0 °F 43.9 °F 30.07 in Calm   7.0 mph 66 % 0.00 in 0.00 W/m2
23:28 55.0 °F 43.5 °F 30.08 in ESE 1.0 mph 8.0 mph 65 % 0.00 in 0.00 W/m2
23:33 55.0 °F 43.5 °F 30.08 in ESE 6.0 mph 7.0 mph 65 % 0.00 in 0.00 W/m2
23:38 54.9 °F 43.0 °F 30.08 in Calm   5.0 mph 64 % 0.00 in 0.00 W/m2
23:43 54.9 °F 43.0 °F 30.07 in ESE 4.0 mph 8.0 mph 64 % 0.00 in 0.00 W/m2
23:48 54.8 °F 43.3 °F 30.08 in Calm   1.0 mph 65 % 0.00 in 0.00 W/m2
23:53 54.8 °F 43.3 °F 30.08 in Calm     65 % 0.00 in 0.00 W/m2
23:58 54.8 °F 42.9 °F 30.08 in Calm     64 % 0.00 in 0.00 W/m2
Juneau County Weather
Compliments of Weather Underground - 4.5 mb
 WU-history PHP script courtesy of   Juneau County Weather.
powered by Cumulus v1.9.3 (1059)
Ambient Weather VWS v14.00
Top Contact Website Map Copyright © 2007 - 2018 Foresthillweather.com Never base important decisions on this or any weather information obtained from the Internet